Time;durP1;ratioP1;P1;durP2;ratioP2;P2;SDS_P1;SDS_P2;PMS_P1;PMS_P2;Temp;Humidity;BMP_temperature;BMP_pressure;BME280_temperature;BME280_humidity;BME280_pressure;Samples;Min_cycle;Max_cycle;Signal;HPM_P1;HPM_P2
2024/04/26 00:00:51;;;;;;;4.20;1.55;;;;;;;;;;5441450;26;20025;-62
2024/04/26 00:03:17;;;;;;;4.75;1.70;;;;;;;;;;5440352;26;20062;-60
2024/04/26 00:05:42;;;;;;;3.78;1.55;;;;;;;;;;5436587;26;20026;-60
2024/04/26 00:08:08;;;;;;;4.22;1.42;;;;;;;;;;5418785;26;20456;-61
2024/04/26 00:10:33;;;;;;;3.70;1.60;;;;;;;;;;5426617;26;20053;-63
2024/04/26 00:12:59;;;;;;;3.90;1.60;;;;;;;;;;5448323;26;20336;-61
2024/04/26 00:15:24;;;;;;;4.20;1.48;;;;;;;;;;5424781;26;20008;-61
2024/04/26 00:17:50;;;;;;;3.60;1.55;;;;;;;;;;5440374;26;20070;-60
2024/04/26 00:20:16;;;;;;;4.10;1.38;;;;;;;;;;5422120;26;20000;-63
2024/04/26 00:22:41;;;;;;;4.55;1.60;;;;;;;;;;5451319;26;20013;-61
2024/04/26 00:25:07;;;;;;;3.83;1.40;;;;;;;;;;5434374;26;19999;-61
2024/04/26 00:27:32;;;;;;;4.05;1.50;;;;;;;;;;5415734;26;20011;-62
2024/04/26 00:29:58;;;;;;;4.90;1.60;;;;;;;;;;5415228;26;20004;-60
2024/04/26 00:32:23;;;;;;;4.65;1.70;;;;;;;;;;5445390;26;20014;-61
2024/04/26 00:34:49;;;;;;;4.55;1.70;;;;;;;;;;5440546;26;19998;-61
2024/04/26 00:37:15;;;;;;;4.93;1.75;;;;;;;;;;5442358;26;19995;-60
2024/04/26 00:39:40;;;;;;;3.75;1.42;;;;;;;;;;5450820;26;20462;-60
2024/04/26 00:42:06;;;;;;;5.10;1.80;;;;;;;;;;5444005;26;20075;-60
2024/04/26 00:44:31;;;;;;;3.92;1.40;;;;;;;;;;5416172;26;20003;-60
2024/04/26 00:46:57;;;;;;;4.43;1.63;;;;;;;;;;5431410;26;20405;-61
2024/04/26 00:49:23;;;;;;;3.90;1.65;;;;;;;;;;5449113;26;20642;-61
2024/04/26 00:51:48;;;;;;;4.32;1.67;;;;;;;;;;5443470;26;19999;-60
2024/04/26 00:54:16;;;;;;;4.30;1.55;;;;;;;;;;5437734;26;20412;-61
2024/04/26 00:56:42;;;;;;;4.80;1.50;;;;;;;;;;5414591;26;20455;-60
2024/04/26 00:59:08;;;;;;;4.93;1.70;;;;;;;;;;5415704;26;20010;-60
2024/04/26 01:01:34;;;;;;;4.70;1.70;;;;;;;;;;5426477;26;20009;-61
2024/04/26 01:04:00;;;;;;;3.85;1.65;;;;;;;;;;5443393;26;20011;-61
2024/04/26 01:06:25;;;;;;;4.40;1.50;;;;;;;;;;5449120;26;20075;-60
2024/04/26 01:08:51;;;;;;;4.38;1.73;;;;;;;;;;5451229;26;20015;-61
2024/04/26 01:11:16;;;;;;;4.95;1.98;;;;;;;;;;5436596;26;20009;-61
2024/04/26 01:13:42;;;;;;;3.97;1.63;;;;;;;;;;5432444;26;20072;-63
2024/04/26 01:16:08;;;;;;;6.50;2.10;;;;;;;;;;5422528;26;19991;-61
2024/04/26 01:18:34;;;;;;;5.95;2.00;;;;;;;;;;5451382;26;20003;-61
2024/04/26 01:20:59;;;;;;;4.40;1.70;;;;;;;;;;5436864;26;20031;-61
2024/04/26 01:23:25;;;;;;;5.13;1.92;;;;;;;;;;5438175;26;20000;-63
2024/04/26 01:25:55;;;;;;;6.32;2.03;;;;;;;;;;5441524;26;19996;-60
2024/04/26 01:28:20;;;;;;;4.78;2.20;;;;;;;;;;5425236;26;20008;-61
2024/04/26 01:30:46;;;;;;;4.72;1.83;;;;;;;;;;5445592;26;20017;-61
2024/04/26 01:33:11;;;;;;;5.80;1.73;;;;;;;;;;5442175;26;19999;-61
2024/04/26 01:35:37;;;;;;;4.63;1.80;;;;;;;;;;5455181;26;20036;-62
2024/04/26 01:38:02;;;;;;;5.15;2.03;;;;;;;;;;5416777;26;20008;-61
2024/04/26 01:40:28;;;;;;;4.93;1.95;;;;;;;;;;5423865;26;20011;-61
2024/04/26 01:42:53;;;;;;;5.78;2.30;;;;;;;;;;5434274;26;20075;-62
2024/04/26 01:45:19;;;;;;;5.97;2.00;;;;;;;;;;5441282;26;20003;-63
2024/04/26 01:47:44;;;;;;;5.10;2.00;;;;;;;;;;5445427;26;20011;-59
2024/04/26 01:50:10;;;;;;;5.32;2.08;;;;;;;;;;5429253;26;20479;-63
2024/04/26 01:52:35;;;;;;;4.57;2.00;;;;;;;;;;5444565;26;20320;-62
2024/04/26 01:55:01;;;;;;;6.88;1.90;;;;;;;;;;5448895;26;19995;-60
2024/04/26 01:57:26;;;;;;;5.18;2.00;;;;;;;;;;5451830;26;20003;-60
2024/04/26 01:59:52;;;;;;;5.95;2.00;;;;;;;;;;5415168;26;20004;-62
2024/04/26 02:02:17;;;;;;;6.25;2.10;;;;;;;;;;5445746;26;20053;-63
2024/04/26 02:04:43;;;;;;;5.97;2.40;;;;;;;;;;5443275;26;19991;-62
2024/04/26 02:07:08;;;;;;;5.20;1.98;;;;;;;;;;5424810;26;20011;-61
2024/04/26 02:09:34;;;;;;;5.57;2.33;;;;;;;;;;5416386;26;20072;-60
2024/04/26 02:11:59;;;;;;;7.50;2.60;;;;;;;;;;5424286;26;20009;-59
2024/04/26 02:14:25;;;;;;;5.25;2.08;;;;;;;;;;5434780;26;20007;-60
2024/04/26 02:16:50;;;;;;;6.00;2.25;;;;;;;;;;5435458;26;20068;-61
2024/04/26 02:19:16;;;;;;;6.55;2.20;;;;;;;;;;5416345;26;20010;-61
2024/04/26 02:21:41;;;;;;;4.90;2.05;;;;;;;;;;5425119;26;20002;-62
2024/04/26 02:24:07;;;;;;;5.75;2.38;;;;;;;;;;5447258;26;20002;-60
2024/04/26 02:26:32;;;;;;;5.97;1.98;;;;;;;;;;5453052;26;20044;-62
2024/04/26 02:28:58;;;;;;;6.38;2.40;;;;;;;;;;5454026;26;19995;-62
2024/04/26 02:31:24;;;;;;;6.47;2.33;;;;;;;;;;5443530;26;20012;-62
2024/04/26 02:33:50;;;;;;;6.85;2.30;;;;;;;;;;5443953;26;20056;-61
2024/04/26 02:36:15;;;;;;;6.35;2.10;;;;;;;;;;5451390;26;20384;-61
2024/04/26 02:38:42;;;;;;;7.47;2.85;;;;;;;;;;5443154;26;20010;-61
2024/04/26 02:41:10;;;;;;;5.78;2.22;;;;;;;;;;5424370;26;20007;-61
2024/04/26 02:43:35;;;;;;;6.78;2.75;;;;;;;;;;5440930;26;20489;-61
2024/04/26 02:46:01;;;;;;;4.72;2.20;;;;;;;;;;5418104;26;20012;-62
2024/04/26 02:48:27;;;;;;;8.02;2.50;;;;;;;;;;5414351;26;20026;-62
2024/04/26 02:50:52;;;;;;;5.85;2.13;;;;;;;;;;5419027;26;19991;-60
2024/04/26 02:53:18;;;;;;;5.05;2.10;;;;;;;;;;5446557;26;19998;-60
2024/04/26 02:55:43;;;;;;;4.70;2.00;;;;;;;;;;5447748;26;20006;-60
2024/04/26 02:58:09;;;;;;;5.75;2.38;;;;;;;;;;5449574;26;20005;-60
2024/04/26 03:00:34;;;;;;;6.40;2.60;;;;;;;;;;5442479;26;19995;-61
2024/04/26 03:03:00;;;;;;;5.40;2.50;;;;;;;;;;5445766;26;20007;-62
2024/04/26 03:05:27;;;;;;;5.22;2.45;;;;;;;;;;5426868;26;20007;-60
2024/04/26 03:07:52;;;;;;;;;;;;;;;;;;5424833;26;20003;-61
2024/04/26 03:10:18;;;;;;;6.90;2.40;;;;;;;;;;5425923;26;19933;-61
2024/04/26 03:12:43;;;;;;;4.93;2.20;;;;;;;;;;5443346;26;20459;-62
2024/04/26 03:15:10;;;;;;;6.00;2.45;;;;;;;;;;5451295;26;20387;-60
2024/04/26 03:17:38;;;;;;;5.93;2.60;;;;;;;;;;5416351;26;19999;-60
2024/04/26 03:20:04;;;;;;;5.45;2.50;;;;;;;;;;5435224;26;20010;-61
2024/04/26 03:22:30;;;;;;;5.57;2.30;;;;;;;;;;5435379;26;20756;-61
2024/04/26 03:24:56;;;;;;;7.07;2.20;;;;;;;;;;5426950;26;20588;-61
2024/04/26 03:27:22;;;;;;;6.43;2.40;;;;;;;;;;5424575;26;19995;-62
2024/04/26 03:29:47;;;;;;;7.72;2.70;;;;;;;;;;5451438;26;20521;-61
2024/04/26 03:32:13;;;;;;;7.18;2.47;;;;;;;;;;5432737;26;20459;-62
2024/04/26 03:34:38;;;;;;;6.65;2.70;;;;;;;;;;5438483;26;20451;-63
2024/04/26 03:37:04;;;;;;;5.95;2.50;;;;;;;;;;5445462;26;20566;-61
2024/04/26 03:39:29;;;;;;;5.57;2.20;;;;;;;;;;5452892;26;19995;-60
2024/04/26 03:41:55;;;;;;;7.03;2.53;;;;;;;;;;5448198;26;20007;-63
2024/04/26 03:44:20;;;;;;;7.50;2.80;;;;;;;;;;5443981;26;20070;-61
2024/04/26 03:46:46;;;;;;;6.88;2.67;;;;;;;;;;5444974;26;20000;-62
2024/04/26 03:49:11;;;;;;;5.82;2.30;;;;;;;;;;5435953;26;20006;-61
2024/04/26 03:51:37;;;;;;;5.82;2.50;;;;;;;;;;5438173;26;20072;-62
2024/04/26 03:54:02;;;;;;;5.93;2.58;;;;;;;;;;5427916;26;20003;-61
2024/04/26 03:56:28;;;;;;;8.85;2.85;;;;;;;;;;5452425;26;20091;-62
2024/04/26 03:58:53;;;;;;;6.00;2.60;;;;;;;;;;5450042;26;20003;-63
2024/04/26 04:01:19;;;;;;;6.72;2.33;;;;;;;;;;5442012;26;20007;-63
2024/04/26 04:03:45;;;;;;;7.18;3.08;;;;;;;;;;5432123;26;20066;-60
2024/04/26 04:06:10;;;;;;;6.88;2.72;;;;;;;;;;5439464;26;20009;-61
2024/04/26 04:08:36;;;;;;;5.95;2.53;;;;;;;;;;5437579;26;19996;-60
2024/04/26 04:11:01;;;;;;;5.93;2.70;;;;;;;;;;5445728;26;20010;-64
2024/04/26 04:13:28;;;;;;;6.68;2.33;;;;;;;;;;5430311;26;20000;-61
2024/04/26 04:15:54;;;;;;;6.78;2.75;;;;;;;;;;5431476;26;20470;-61
2024/04/26 04:18:20;;;;;;;6.57;3.10;;;;;;;;;;5434197;26;20003;-62
2024/04/26 04:20:45;;;;;;;8.73;2.80;;;;;;;;;;5418351;26;20059;-63
2024/04/26 04:23:11;;;;;;;6.75;2.83;;;;;;;;;;5440215;26;19995;-61
2024/04/26 04:25:36;;;;;;;9.32;3.20;;;;;;;;;;5425138;26;20070;-60
2024/04/26 04:28:03;;;;;;;7.47;2.75;;;;;;;;;;5439965;26;20504;-61
2024/04/26 04:30:28;;;;;;;7.20;3.08;;;;;;;;;;5446268;26;20350;-63
2024/04/26 04:32:54;;;;;;;8.60;3.33;;;;;;;;;;5416751;26;20008;-62
2024/04/26 04:35:19;;;;;;;8.65;3.55;;;;;;;;;;5446230;26;20067;-61
2024/04/26 04:37:45;;;;;;;7.70;3.55;;;;;;;;;;5429053;26;20011;-61
2024/04/26 04:40:11;;;;;;;6.65;2.80;;;;;;;;;;5442914;26;20083;-66
2024/04/26 04:42:36;;;;;;;6.95;2.95;;;;;;;;;;5424718;26;20010;-62
2024/04/26 04:45:02;;;;;;;7.43;2.75;;;;;;;;;;5424810;26;20659;-62
2024/04/26 04:47:27;;;;;;;6.68;2.60;;;;;;;;;;5435135;26;20007;-62
2024/04/26 04:49:53;;;;;;;7.93;2.85;;;;;;;;;;5447137;26;20070;-62
2024/04/26 04:52:18;;;;;;;6.50;2.65;;;;;;;;;;5429411;26;19995;-62
2024/04/26 04:54:44;;;;;;;5.95;2.58;;;;;;;;;;5445796;26;20015;-62
2024/04/26 04:57:09;;;;;;;7.68;2.90;;;;;;;;;;5423868;26;20080;-62
2024/04/26 04:59:35;;;;;;;7.30;2.40;;;;;;;;;;5417872;26;20012;-62
2024/04/26 05:02:00;;;;;;;6.80;2.78;;;;;;;;;;5418803;26;20429;-63
2024/04/26 05:04:26;;;;;;;7.18;2.80;;;;;;;;;;5431429;26;20389;-60
2024/04/26 05:06:51;;;;;;;8.32;2.90;;;;;;;;;;5433979;26;20717;-61
2024/04/26 05:09:17;;;;;;;8.35;3.03;;;;;;;;;;5441194;26;20388;-62
2024/04/26 05:11:42;;;;;;;7.45;2.80;;;;;;;;;;5430469;26;20011;-62
2024/04/26 05:14:08;;;;;;;7.13;2.53;;;;;;;;;;5441469;26;20440;-61
2024/04/26 05:16:33;;;;;;;6.65;2.90;;;;;;;;;;5449151;26;20389;-61
2024/04/26 05:18:59;;;;;;;6.25;2.17;;;;;;;;;;5428689;26;20587;-62
2024/04/26 05:21:25;;;;;;;6.80;2.67;;;;;;;;;;5434437;26;20481;-60
2024/04/26 05:23:50;;;;;;;7.85;3.03;;;;;;;;;;5448972;26;20015;-61
2024/04/26 05:26:16;;;;;;;6.10;2.60;;;;;;;;;;5446777;26;20010;-61
2024/04/26 05:28:41;;;;;;;5.93;2.50;;;;;;;;;;5452080;26;20010;-62
2024/04/26 05:31:07;;;;;;;6.70;2.72;;;;;;;;;;5444883;26;20053;-63
2024/04/26 05:33:32;;;;;;;5.97;2.40;;;;;;;;;;5454381;26;19991;-61
2024/04/26 05:35:58;;;;;;;8.63;2.75;;;;;;;;;;5423751;26;19999;-61
2024/04/26 05:38:24;;;;;;;7.88;2.53;;;;;;;;;;5416813;26;20011;-63
2024/04/26 05:40:50;;;;;;;6.10;2.30;;;;;;;;;;5427635;26;20010;-62
2024/04/26 05:43:16;;;;;;;7.90;2.50;;;;;;;;;;5478747;26;19999;-61
2024/04/26 05:45:42;;;;;;;8.15;2.63;;;;;;;;;;5427768;26;20011;-61
2024/04/26 05:48:07;;;;;;;7.18;2.65;;;;;;;;;;5432030;26;20010;-62
2024/04/26 05:50:33;;;;;;;6.53;2.50;;;;;;;;;;5448419;26;20005;-61
2024/04/26 05:52:58;;;;;;;7.90;2.47;;;;;;;;;;5436773;26;20076;-62
2024/04/26 05:55:24;;;;;;;5.85;2.33;;;;;;;;;;5437582;26;20014;-62
2024/04/26 05:57:49;;;;;;;7.45;2.33;;;;;;;;;;5430297;26;19995;-63
2024/04/26 06:00:15;;;;;;;6.60;2.33;;;;;;;;;;5432201;26;20000;-60
2024/04/26 06:02:40;;;;;;;6.03;2.53;;;;;;;;;;5433660;26;20070;-62
2024/04/26 06:05:11;;;;;;;10.98;2.72;;;;;;;;;;5417254;26;20011;-62
2024/04/26 06:07:37;;;;;;;6.93;2.55;;;;;;;;;;5414021;26;19999;-61
2024/04/26 06:10:03;;;;;;;8.07;2.42;;;;;;;;;;5433534;26;19996;-62
2024/04/26 06:12:29;;;;;;;7.20;2.90;;;;;;;;;;5433177;26;19999;-62
2024/04/26 06:14:54;;;;;;;6.55;2.60;;;;;;;;;;5417444;26;19998;-60
2024/04/26 06:17:20;;;;;;;6.68;2.50;;;;;;;;;;5433883;26;20010;-63
2024/04/26 06:19:45;;;;;;;6.07;2.50;;;;;;;;;;5414421;26;20003;-61
2024/04/26 06:22:12;;;;;;;5.38;2.28;;;;;;;;;;5436914;26;20014;-61
2024/04/26 06:24:37;;;;;;;;;;;;;;;;;;5443967;26;20415;-62
2024/04/26 06:27:03;;;;;;;5.83;2.33;;;;;;;;;;5415668;26;19932;-60
2024/04/26 06:29:29;;;;;;;7.75;2.85;;;;;;;;;;5433211;26;20328;-62
2024/04/26 06:31:57;;;;;;;8.70;2.72;;;;;;;;;;5450278;26;20011;-62
2024/04/26 06:34:23;;;;;;;6.78;2.70;;;;;;;;;;5460511;26;20017;-62
2024/04/26 06:36:48;;;;;;;6.63;2.45;;;;;;;;;;5463072;26;20003;-61
2024/04/26 06:39:15;;;;;;;7.15;2.22;;;;;;;;;;5465950;26;20015;-60
2024/04/26 06:41:40;;;;;;;5.53;2.40;;;;;;;;;;5438868;26;20003;-61
2024/04/26 06:44:06;;;;;;;5.25;2.10;;;;;;;;;;5453123;26;19992;-65
2024/04/26 06:46:31;;;;;;;6.43;2.15;;;;;;;;;;5420796;26;20003;-60
2024/04/26 06:48:57;;;;;;;6.70;2.75;;;;;;;;;;5420939;26;20064;-62
2024/04/26 06:51:22;;;;;;;8.25;2.70;;;;;;;;;;5427588;26;20003;-61
2024/04/26 06:53:50;;;;;;;10.55;2.70;;;;;;;;;;5455389;26;20003;-61
2024/04/26 06:56:15;;;;;;;5.55;2.30;;;;;;;;;;5452906;26;20010;-62
2024/04/26 06:58:41;;;;;;;6.15;2.10;;;;;;;;;;5447634;26;19999;-60
2024/04/26 07:01:07;;;;;;;6.20;2.30;;;;;;;;;;5443158;26;20003;-62
2024/04/26 07:03:36;;;;;;;5.65;2.03;;;;;;;;;;5450951;26;20852;-62
2024/04/26 07:06:02;;;;;;;7.25;2.15;;;;;;;;;;5453721;26;20001;-61
2024/04/26 07:08:29;;;;;;;7.85;2.53;;;;;;;;;;5451402;26;20003;-61
2024/04/26 07:10:54;;;;;;;7.30;2.30;;;;;;;;;;5441656;26;20067;-62
2024/04/26 07:13:21;;;;;;;6.20;2.50;;;;;;;;;;5449659;26;19995;-60
2024/04/26 07:15:46;;;;;;;6.20;2.22;;;;;;;;;;5440469;26;20006;-61
2024/04/26 07:18:12;;;;;;;6.50;2.70;;;;;;;;;;5451591;26;20075;-63
2024/04/26 07:20:39;;;;;;;5.97;2.50;;;;;;;;;;5455504;26;19991;-63
2024/04/26 07:23:04;;;;;;;;;;;;;;;;;;5450403;26;20330;-62
2024/04/26 07:25:29;;;;;;;5.03;1.90;;;;;;;;;;5441869;26;19939;-63
2024/04/26 07:27:55;;;;;;;7.05;1.70;;;;;;;;;;5453519;26;20364;-62
2024/04/26 07:30:20;;;;;;;8.65;2.30;;;;;;;;;;5453670;26;20427;-61
2024/04/26 07:32:46;;;;;;;5.55;2.22;;;;;;;;;;5440144;26;20459;-63
2024/04/26 07:35:11;;;;;;;7.22;2.10;;;;;;;;;;5434624;26;20455;-66
2024/04/26 07:37:37;;;;;;;6.00;2.35;;;;;;;;;;5453150;26;20470;-62
2024/04/26 07:40:03;;;;;;;5.05;2.03;;;;;;;;;;5453398;26;20071;-62
2024/04/26 07:42:28;;;;;;;4.47;1.80;;;;;;;;;;5442889;26;19999;-61
2024/04/26 07:44:54;;;;;;;6.30;2.30;;;;;;;;;;5450643;26;20014;-63
2024/04/26 07:47:22;;;;;;;6.15;2.10;;;;;;;;;;5451952;26;20014;-62
2024/04/26 07:49:47;;;;;;;7.68;2.20;;;;;;;;;;5451742;26;20327;-61
2024/04/26 07:52:13;;;;;;;6.13;2.13;;;;;;;;;;5449051;26;20010;-62
2024/04/26 07:54:38;;;;;;;6.40;2.38;;;;;;;;;;5449019;26;20075;-62
2024/04/26 07:57:04;;;;;;;7.68;2.30;;;;;;;;;;5451641;26;20002;-62
2024/04/26 07:59:29;;;;;;;6.35;2.38;;;;;;;;;;5451069;26;20114;-62
2024/04/26 08:01:55;;;;;;;5.72;2.80;;;;;;;;;;5450372;26;20006;-63
2024/04/26 08:04:20;;;;;;;12.20;2.50;;;;;;;;;;5443247;26;20071;-60
2024/04/26 08:06:47;;;;;;;5.57;2.20;;;;;;;;;;5448469;26;20502;-62
2024/04/26 08:09:12;;;;;;;;;;;;;;;;;;5417309;26;20339;-61
2024/04/26 08:11:38;;;;;;;5.80;1.87;;;;;;;;;;5416665;26;19925;-61
2024/04/26 08:14:03;;;;;;;5.07;1.90;;;;;;;;;;5437559;26;20321;-61
2024/04/26 08:16:29;;;;;;;5.00;2.10;;;;;;;;;;5457062;26;19991;-62
2024/04/26 08:18:56;;;;;;;5.32;2.10;;;;;;;;;;5464976;26;20002;-61
2024/04/26 08:21:21;;;;;;;5.97;2.10;;;;;;;;;;5462703;26;19994;-64
2024/04/26 08:23:51;;;;;;;6.97;2.13;;;;;;;;;;5445956;26;20003;-64
2024/04/26 08:26:18;;;;;;;5.78;2.05;;;;;;;;;;5457769;26;20019;-65
2024/04/26 08:28:44;;;;;;;5.95;1.63;;;;;;;;;;5451782;26;19994;-62
2024/04/26 08:31:10;;;;;;;4.30;1.20;;;;;;;;;;5440468;26;20126;-62
2024/04/26 08:33:35;;;;;;;5.10;1.20;;;;;;;;;;5461298;26;19991;-62
2024/04/26 08:36:01;;;;;;;4.78;1.10;;;;;;;;;;5458178;26;20002;-62
2024/04/26 08:38:26;;;;;;;3.38;1.27;;;;;;;;;;5454663;26;20002;-63
2024/04/26 08:40:52;;;;;;;3.40;1.17;;;;;;;;;;5461183;26;20007;-61
2024/04/26 08:43:18;;;;;;;4.65;1.08;;;;;;;;;;5454103;26;20048;-61
2024/04/26 08:45:45;;;;;;;4.72;1.15;;;;;;;;;;5453065;26;19999;-61
2024/04/26 08:48:11;;;;;;;2.95;1.00;;;;;;;;;;5455856;26;20319;-62
2024/04/26 08:50:36;;;;;;;;;;;;;;;;;;5439594;26;20010;-62
2024/04/26 08:53:06;;;;;;;4.13;1.00;;;;;;;;;;5451615;26;20261;-60
2024/04/26 08:55:33;;;;;;;4.25;0.98;;;;;;;;;;5451083;26;20304;-61
2024/04/26 08:57:59;;;;;;;4.55;0.90;;;;;;;;;;5451368;26;20399;-61
2024/04/26 09:00:25;;;;;;;5.65;1.30;;;;;;;;;;5440087;26;20013;-61
2024/04/26 09:02:50;;;;;;;4.13;1.02;;;;;;;;;;5448761;26;20319;-63
2024/04/26 09:05:18;;;;;;;4.22;1.10;;;;;;;;;;5449311;26;20403;-64
2024/04/26 09:07:44;;;;;;;4.10;1.13;;;;;;;;;;5450857;26;19994;-63
2024/04/26 09:10:09;;;;;;;3.38;1.10;;;;;;;;;;5444959;26;20066;-62
2024/04/26 09:12:35;;;;;;;5.97;1.10;;;;;;;;;;5446190;26;19999;-62
2024/04/26 09:15:02;;;;;;;8.90;1.42;;;;;;;;;;5452916;26;19999;-63
2024/04/26 09:17:28;;;;;;;5.55;1.30;;;;;;;;;;5451479;26;20006;-62
2024/04/26 09:19:54;;;;;;;4.22;1.13;;;;;;;;;;5439124;26;20075;-62
2024/04/26 09:22:22;;;;;;;4.82;1.30;;;;;;;;;;5428279;26;20000;-62
2024/04/26 09:24:47;;;;;;;4.22;0.98;;;;;;;;;;5443694;26;20007;-62
2024/04/26 09:27:13;;;;;;;3.15;1.00;;;;;;;;;;5448455;26;20408;-61
2024/04/26 09:29:39;;;;;;;5.53;1.10;;;;;;;;;;5445986;26;20459;-61
2024/04/26 09:32:04;;;;;;;4.50;1.10;;;;;;;;;;5443441;26;20402;-62
2024/04/26 09:34:33;;;;;;;3.45;1.08;;;;;;;;;;5432615;26;20645;-64
2024/04/26 09:36:59;;;;;;;4.57;1.05;;;;;;;;;;5451144;26;20010;-64
2024/04/26 09:39:26;;;;;;;5.05;1.20;;;;;;;;;;5442154;26;20015;-62
2024/04/26 09:41:52;;;;;;;4.40;1.27;;;;;;;;;;5439890;26;19998;-65
2024/04/26 09:44:19;;;;;;;6.15;1.10;;;;;;;;;;5450518;26;20064;-61
2024/04/26 09:46:45;;;;;;;4.88;1.20;;;;;;;;;;5450064;26;20373;-62
2024/04/26 09:49:10;;;;;;;3.97;0.98;;;;;;;;;;5450825;26;20051;-62
2024/04/26 09:51:37;;;;;;;5.93;1.15;;;;;;;;;;5430437;26;20463;-61
2024/04/26 09:54:03;;;;;;;3.95;1.00;;;;;;;;;;5453133;26;19999;-63
2024/04/26 09:56:29;;;;;;;3.83;1.15;;;;;;;;;;5451963;26;20404;-61
2024/04/26 09:58:54;;;;;;;3.53;1.00;;;;;;;;;;5452371;26;19994;-62
2024/04/26 10:01:20;;;;;;;6.20;1.30;;;;;;;;;;5443155;26;19999;-62
2024/04/26 10:03:46;;;;;;;5.28;1.40;;;;;;;;;;5453969;26;20031;-66
2024/04/26 10:06:12;;;;;;;6.93;1.50;;;;;;;;;;5441026;26;20039;-63
2024/04/26 10:08:38;;;;;;;4.70;1.00;;;;;;;;;;5448478;26;20049;-62
2024/04/26 10:11:10;;;;;;;4.65;1.20;;;;;;;;;;5438638;26;19999;-62
2024/04/26 10:13:45;;;;;;;5.45;1.20;;;;;;;;;;5435467;26;20011;-62
2024/04/26 10:16:11;;;;;;;4.85;1.15;;;;;;;;;;5449773;26;19998;-61
2024/04/26 10:18:38;;;;;;;4.60;1.13;;;;;;;;;;5450006;26;20075;-63
2024/04/26 10:21:04;;;;;;;4.88;0.95;;;;;;;;;;5436934;26;20022;-62
2024/04/26 10:23:29;;;;;;;4.95;1.40;;;;;;;;;;5445812;26;20071;-62
2024/04/26 10:26:05;;;;;;;4.07;1.00;;;;;;;;;;5439022;26;20011;-62
2024/04/26 10:28:31;;;;;;;4.15;1.30;;;;;;;;;;5449454;26;19998;-62
2024/04/26 10:30:57;;;;;;;4.75;1.50;;;;;;;;;;5440243;26;20013;-62
2024/04/26 10:33:23;;;;;;;5.40;1.30;;;;;;;;;;5449255;26;20007;-63
2024/04/26 10:35:49;;;;;;;3.80;1.20;;;;;;;;;;5448986;26;19990;-61
2024/04/26 10:38:15;;;;;;;;;;;;;;;;;;5447038;26;20000;-60
2024/04/26 10:40:47;;;;;;;3.33;0.97;;;;;;;;;;5447896;26;19937;-63
2024/04/26 10:43:12;;;;;;;;;;;;;;;;;;5449921;26;20392;-62
2024/04/26 10:45:38;;;;;;;4.77;1.30;;;;;;;;;;5449218;26;20360;-62
2024/04/26 10:48:03;;;;;;;4.80;1.20;;;;;;;;;;5445118;26;20277;-65
2024/04/26 10:50:29;;;;;;;4.93;1.50;;;;;;;;;;5448634;26;20419;-62
2024/04/26 10:53:05;;;;;;;4.53;1.27;;;;;;;;;;5444956;26;20338;-61
2024/04/26 10:55:33;;;;;;;3.83;1.23;;;;;;;;;;5447332;26;20643;-61
2024/04/26 10:57:58;;;;;;;5.45;1.23;;;;;;;;;;5438701;26;20007;-63
2024/04/26 11:00:24;;;;;;;5.53;1.35;;;;;;;;;;5445825;26;20013;-61
2024/04/26 11:02:50;;;;;;;3.92;1.30;;;;;;;;;;5449388;26;19998;-62
2024/04/26 11:05:15;;;;;;;4.32;1.20;;;;;;;;;;5449419;26;20154;-62
2024/04/26 11:07:50;;;;;;;4.78;1.23;;;;;;;;;;5448856;26;20071;-62
2024/04/26 11:10:25;;;;;;;4.15;1.30;;;;;;;;;;5443154;26;20007;-62
2024/04/26 11:12:52;;;;;;;4.75;1.40;;;;;;;;;;5439239;26;20010;-63
2024/04/26 11:15:18;;;;;;;4.68;1.10;;;;;;;;;;5443881;26;20035;-62
2024/04/26 11:17:43;;;;;;;5.03;1.50;;;;;;;;;;5448421;26;20070;-62
2024/04/26 11:20:09;;;;;;;4.50;1.10;;;;;;;;;;5441999;26;20014;-62
2024/04/26 11:22:34;;;;;;;3.42;0.93;;;;;;;;;;5420552;26;20000;-63
2024/04/26 11:25:00;;;;;;;3.80;1.30;;;;;;;;;;5412787;26;20361;-64
2024/04/26 11:27:25;;;;;;;5.60;1.40;;;;;;;;;;5415637;26;20333;-62
2024/04/26 11:29:51;;;;;;;4.50;1.40;;;;;;;;;;5442500;26;20411;-61
2024/04/26 11:32:18;;;;;;;4.95;1.50;;;;;;;;;;5443702;26;20336;-63
2024/04/26 11:34:43;;;;;;;4.95;1.13;;;;;;;;;;5450360;26;20370;-61
2024/04/26 11:37:09;;;;;;;3.03;0.95;;;;;;;;;;5435538;26;20012;-61
2024/04/26 11:39:34;;;;;;;5.40;1.38;;;;;;;;;;5419911;26;20014;-63
2024/04/26 11:42:00;;;;;;;3.40;1.15;;;;;;;;;;5430781;26;20006;-62
2024/04/26 11:44:26;;;;;;;3.80;1.23;;;;;;;;;;5456729;26;20006;-61
2024/04/26 11:46:52;;;;;;;3.75;1.20;;;;;;;;;;5454742;26;20074;-62
2024/04/26 11:49:17;;;;;;;3.97;1.20;;;;;;;;;;5453922;26;20007;-62
2024/04/26 11:51:45;;;;;;;4.50;1.35;;;;;;;;;;5453550;26;20003;-63
2024/04/26 11:54:10;;;;;;;3.80;1.30;;;;;;;;;;5443756;26;20405;-62
2024/04/26 11:56:36;;;;;;;4.90;1.50;;;;;;;;;;5443670;26;20346;-62
2024/04/26 11:59:02;;;;;;;;;;;;;;;;;;5449323;26;20036;-62
2024/04/26 12:01:28;;;;;;;4.70;1.38;;;;;;;;;;5453271;26;19924;-63
2024/04/26 12:03:54;;;;;;;4.65;1.55;;;;;;;;;;5432196;26;20010;-63
2024/04/26 12:06:21;;;;;;;4.38;1.25;;;;;;;;;;5448410;26;19999;-61
2024/04/26 12:08:47;;;;;;;5.75;1.42;;;;;;;;;;5452199;26;19994;-61
2024/04/26 12:11:13;;;;;;;5.57;1.50;;;;;;;;;;5452670;26;19995;-67
2024/04/26 12:13:40;;;;;;;4.40;1.20;;;;;;;;;;5444021;26;20501;-61
2024/04/26 12:16:05;;;;;;;3.45;1.40;;;;;;;;;;5444611;26;20013;-62
2024/04/26 12:18:32;;;;;;;4.22;1.33;;;;;;;;;;5452297;26;20003;-61
2024/04/26 12:20:57;;;;;;;3.78;1.20;;;;;;;;;;5444755;26;19998;-61
2024/04/26 12:23:23;;;;;;;6.32;1.40;;;;;;;;;;5442674;26;20014;-62
2024/04/26 12:25:49;;;;;;;4.88;1.23;;;;;;;;;;5452679;26;20007;-61
2024/04/26 12:28:14;;;;;;;4.65;1.50;;;;;;;;;;5450289;26;19998;-63
2024/04/26 12:30:40;;;;;;;4.07;1.33;;;;;;;;;;5444322;26;20407;-62
2024/04/26 12:33:05;;;;;;;5.30;1.30;;;;;;;;;;5447681;26;20449;-64
2024/04/26 12:35:35;;;;;;;3.60;1.10;;;;;;;;;;5423820;26;20361;-63
2024/04/26 12:38:00;;;;;;;4.18;1.20;;;;;;;;;;5450350;26;20003;-64
2024/04/26 12:40:28;;;;;;;4.68;1.27;;;;;;;;;;5437488;26;20462;-65
2024/04/26 12:42:54;;;;;;;3.58;1.10;;;;;;;;;;5425844;26;20451;-64
2024/04/26 12:45:21;;;;;;;5.60;1.30;;;;;;;;;;5441707;26;20009;-64
2024/04/26 12:47:46;;;;;;;;;;;;;;;;;;5428628;26;20018;-63
2024/04/26 12:50:11;;;;;;;4.10;1.30;;;;;;;;;;5415459;26;19925;-64
2024/04/26 12:52:37;;;;;;;3.35;1.10;;;;;;;;;;5415540;26;20880;-64
2024/04/26 12:55:03;;;;;;;4.72;1.20;;;;;;;;;;5439021;26;20100;-63
2024/04/26 12:57:28;;;;;;;3.38;1.10;;;;;;;;;;5431371;26;20087;-63
2024/04/26 12:59:54;;;;;;;4.05;1.00;;;;;;;;;;5430204;26;19991;-61
2024/04/26 13:02:19;;;;;;;3.55;1.15;;;;;;;;;;5439132;26;20003;-62
2024/04/26 13:04:45;;;;;;;5.32;1.30;;;;;;;;;;5443366;26;20063;-63
2024/04/26 13:07:11;;;;;;;4.07;1.10;;;;;;;;;;5427578;26;20234;-62
2024/04/26 13:09:37;;;;;;;5.35;1.40;;;;;;;;;;5429831;26;20108;-61
2024/04/26 13:12:03;;;;;;;5.60;1.48;;;;;;;;;;5415237;26;20006;-62
2024/04/26 13:14:29;;;;;;;5.60;1.25;;;;;;;;;;5415253;26;20011;-62
2024/04/26 13:16:55;;;;;;;3.83;1.20;;;;;;;;;;5437997;26;20014;-62
2024/04/26 13:19:21;;;;;;;3.25;1.00;;;;;;;;;;5431980;26;19991;-63
2024/04/26 13:21:47;;;;;;;3.50;1.13;;;;;;;;;;5415206;26;20398;-63
2024/04/26 13:24:12;;;;;;;4.80;1.30;;;;;;;;;;5414373;26;20006;-62
2024/04/26 13:26:38;;;;;;;4.97;1.15;;;;;;;;;;5436855;26;20007;-62
2024/04/26 13:29:03;;;;;;;2.85;1.08;;;;;;;;;;5423337;26;20008;-61
2024/04/26 13:31:29;;;;;;;3.97;1.10;;;;;;;;;;5418989;26;20039;-63
2024/04/26 13:33:54;;;;;;;5.07;1.20;;;;;;;;;;5425016;26;19999;-62
2024/04/26 13:36:20;;;;;;;3.63;1.27;;;;;;;;;;5424229;26;19999;-64
2024/04/26 13:38:46;;;;;;;3.58;1.08;;;;;;;;;;5431078;26;20007;-64
2024/04/26 13:41:15;;;;;;;4.65;1.20;;;;;;;;;;5434369;26;19999;-62
2024/04/26 13:43:40;;;;;;;3.15;1.00;;;;;;;;;;5450357;26;20009;-62
2024/04/26 13:46:06;;;;;;;2.97;0.90;;;;;;;;;;5447397;26;20003;-67
2024/04/26 13:48:31;;;;;;;4.40;1.20;;;;;;;;;;5435204;26;20021;-63
2024/04/26 13:50:57;;;;;;;2.42;0.90;;;;;;;;;;5450019;26;20006;-60
2024/04/26 13:53:24;;;;;;;2.85;1.15;;;;;;;;;;5433990;26;20197;-61
2024/04/26 13:55:49;;;;;;;3.10;0.90;;;;;;;;;;5450150;26;20035;-62
2024/04/26 13:58:15;;;;;;;3.45;0.93;;;;;;;;;;5441155;26;20010;-62
2024/04/26 14:00:40;;;;;;;4.05;0.95;;;;;;;;;;5448460;26;20005;-63
2024/04/26 14:03:06;;;;;;;4.28;1.10;;;;;;;;;;5452285;26;19998;-65
2024/04/26 14:05:31;;;;;;;3.05;0.98;;;;;;;;;;5449402;26;20014;-64
2024/04/26 14:07:57;;;;;;;2.90;0.90;;;;;;;;;;5443863;26;20011;-61
2024/04/26 14:10:22;;;;;;;4.53;0.90;;;;;;;;;;5451047;26;20067;-61
2024/04/26 14:12:48;;;;;;;3.10;1.10;;;;;;;;;;5455835;26;19994;-62
2024/04/26 14:15:13;;;;;;;4.22;1.10;;;;;;;;;;5431456;26;20007;-63
2024/04/26 14:17:39;;;;;;;3.35;0.90;;;;;;;;;;5434357;26;20455;-62
2024/04/26 14:20:05;;;;;;;4.05;1.13;;;;;;;;;;5452829;26;20454;-62
2024/04/26 14:22:31;;;;;;;3.80;0.90;;;;;;;;;;5445077;26;20003;-63
2024/04/26 14:24:56;;;;;;;3.60;1.00;;;;;;;;;;5450966;26;20361;-61
2024/04/26 14:27:22;;;;;;;2.08;0.80;;;;;;;;;;5434088;26;19998;-67
2024/04/26 14:29:47;;;;;;;2.97;0.75;;;;;;;;;;5438643;26;19999;-63
2024/04/26 14:32:13;;;;;;;2.60;0.90;;;;;;;;;;5450048;26;20003;-63
2024/04/26 14:34:38;;;;;;;2.53;0.90;;;;;;;;;;5441110;26;19999;-63
2024/04/26 14:37:04;;;;;;;2.63;0.80;;;;;;;;;;5440130;26;20000;-62